ESGT/THN METAR and TAF weather

Enter ICAO airport designator
Station Type Date Time Source
ESGT METAR 2020/07/15 00:50 UTC NOAA

ESGT 150050Z AUTO 15003KT 120V180 8000 R15/P2000N R33///// BR BKN088/// 13/12 Q1010


Station Type Date Time Source
ESGT Decoded METAR 2020/07/15 00:50 UTC NOAA

Trollhattan Private , Sweden (ESGT) 58-19N 012-21E
Jul 14, 2020 - 08:50 PM EDT / 2020.07.15 0050 UTC
Wind: from the SSE (150 degrees) at 3 MPH (3 KT) (direction variable):0
Visibility: 4 mile(s):0
Sky conditions: mostly cloudy
Weather: mist
Temperature: 55 F (13 C)
Dew Point: 53 F (12 C)
Relative Humidity: 93%
Pressure (altimeter): 29.83 in. Hg (1010 hPa)
ob: ESGT 150050Z AUTO 15003KT 120V180 8000 R15/P2000N R33///// BR BKN088/// 13/12 Q1010
cycle: 1

Station Type Date Time Source
ESGT TAF 2016/08/12 05:58 UTC NOAA

TAF ESGT 120430Z 1205/1224 18007KT 9999 FEW030

Example: see airport list